createdAt,value
2023-02-15T00:02:03.823Z,90.18
2023-02-15T00:04:47.397Z,90.48
2023-02-15T00:07:16.737Z,90.80
2023-02-15T00:09:46.512Z,91.37
2023-02-15T00:12:15.123Z,90.72
2023-02-15T00:14:43.258Z,90.76
2023-02-15T00:17:10.645Z,90.92
2023-02-15T00:19:40.045Z,90.48
2023-02-15T00:22:08.122Z,89.89
2023-02-15T00:24:35.884Z,89.07
2023-02-15T00:27:03.309Z,88.69
2023-02-15T00:29:30.844Z,87.93
2023-02-15T00:31:58.189Z,87.71
2023-02-15T00:34:29.489Z,88.03
2023-02-15T00:36:58.131Z,89.46
2023-02-15T00:39:25.534Z,90.89
2023-02-15T00:41:52.876Z,90.46
2023-02-15T00:44:20.168Z,90.32
2023-02-15T00:46:48.832Z,89.77
2023-02-15T00:49:16.119Z,89.81
2023-02-15T00:51:43.444Z,90.82
2023-02-15T00:54:10.762Z,89.88
2023-02-15T00:56:38.133Z,91.27
2023-02-15T00:59:05.505Z,90.29
2023-02-15T01:01:34.074Z,90.00
2023-02-15T01:04:02.596Z,90.06
2023-02-15T01:06:30.652Z,89.60
2023-02-15T01:08:58.000Z,89.31
2023-02-15T01:11:25.499Z,89.26
2023-02-15T01:13:55.754Z,88.96
2023-02-15T01:16:25.339Z,89.25
2023-02-15T01:18:52.712Z,89.84
2023-02-15T01:21:22.650Z,90.77
2023-02-15T01:23:50.410Z,90.45
2023-02-15T01:26:18.471Z,89.89
2023-02-15T01:28:46.460Z,89.08
2023-02-15T01:31:18.995Z,89.16
2023-02-15T01:33:49.427Z,89.62
2023-02-15T01:36:18.413Z,88.83
2023-02-15T01:38:46.390Z,88.89
2023-02-15T01:41:27.387Z,90.99
2023-02-15T01:43:57.798Z,90.97
2023-02-15T01:46:36.183Z,90.92
2023-02-15T01:49:16.173Z,90.96
2023-02-15T01:51:46.935Z,90.90
2023-02-15T01:54:22.817Z,90.75
2023-02-15T01:56:50.138Z,91.01
2023-02-15T01:59:21.449Z,90.23
2023-02-15T02:01:53.441Z,89.22
2023-02-15T02:04:36.631Z,89.06
2023-02-15T02:07:05.567Z,88.71
2023-02-15T02:09:33.334Z,89.41
2023-02-15T02:12:01.824Z,89.22
2023-02-15T02:14:29.813Z,89.55
2023-02-15T02:17:01.045Z,88.60
2023-02-15T02:20:06.004Z,87.23
2023-02-15T02:23:07.156Z,86.93
2023-02-15T02:26:01.286Z,86.36
2023-02-15T02:28:58.620Z,86.25
2023-02-15T02:31:47.716Z,86.43
2023-02-15T02:34:26.844Z,86.23
2023-02-15T02:37:03.854Z,86.19
2023-02-15T02:39:49.747Z,85.64
2023-02-15T02:42:24.870Z,85.87
2023-02-15T02:45:03.274Z,86.11
2023-02-15T02:47:33.652Z,86.60
2023-02-15T02:50:05.250Z,87.58
2023-02-15T02:52:53.088Z,87.25
2023-02-15T02:55:31.622Z,87.29
2023-02-15T02:58:02.756Z,88.41
2023-02-15T03:00:45.694Z,87.67
2023-02-15T03:03:21.298Z,87.45
2023-02-15T03:05:51.680Z,87.64
2023-02-15T03:08:23.161Z,87.52
2023-02-15T03:10:54.648Z,87.32
2023-02-15T03:13:24.539Z,87.21
2023-02-15T03:16:12.357Z,87.79
2023-02-15T03:18:53.608Z,87.43
2023-02-15T03:21:58.996Z,88.64
2023-02-15T03:24:33.120Z,89.18
2023-02-15T03:27:05.175Z,89.04
2023-02-15T03:29:32.967Z,88.69
2023-02-15T03:32:04.319Z,88.59
2023-02-15T03:34:32.042Z,89.48
2023-02-15T03:37:41.447Z,90.27
2023-02-15T03:40:33.525Z,90.67
2023-02-15T03:43:04.346Z,90.28
2023-02-15T03:45:34.210Z,90.45
2023-02-15T03:48:04.049Z,91.17
2023-02-15T03:50:52.480Z,91.00
2023-02-15T03:53:22.377Z,90.88
2023-02-15T03:55:54.356Z,92.00
2023-02-15T03:58:43.144Z,92.32
2023-02-15T04:01:53.337Z,92.24
2023-02-15T04:04:25.646Z,92.77
2023-02-15T04:06:53.112Z,92.60
2023-02-15T04:09:38.674Z,92.76
2023-02-15T04:12:06.136Z,92.87
2023-02-15T04:14:51.896Z,92.68
2023-02-15T04:17:19.317Z,92.54
2023-02-15T04:20:05.067Z,92.06
2023-02-15T04:22:50.902Z,91.77
2023-02-15T04:25:19.009Z,91.14
2023-02-15T04:27:50.041Z,90.74
2023-02-15T04:30:19.634Z,91.08
2023-02-15T04:32:48.501Z,92.02
2023-02-15T04:35:16.120Z,91.82
2023-02-15T04:37:44.347Z,91.83
2023-02-15T04:40:19.198Z,91.42
2023-02-15T04:42:50.247Z,91.83
2023-02-15T04:45:18.102Z,93.64
2023-02-15T04:47:47.285Z,96.13
2023-02-15T04:50:14.633Z,96.72
2023-02-15T04:52:41.980Z,96.23
2023-02-15T04:55:09.705Z,95.89
2023-02-15T04:57:37.153Z,95.91
2023-02-15T05:00:05.180Z,95.73
2023-02-15T05:02:32.526Z,95.88
2023-02-15T05:04:59.901Z,96.39
2023-02-15T05:07:27.261Z,96.16
2023-02-15T05:09:54.522Z,97.05
2023-02-15T05:12:21.943Z,97.11
2023-02-15T05:14:49.241Z,96.58
2023-02-15T05:17:16.556Z,96.48
2023-02-15T05:19:43.853Z,96.35
2023-02-15T05:22:11.185Z,96.69
2023-02-15T05:24:57.221Z,97.32
2023-02-15T05:27:42.886Z,97.14
2023-02-15T05:30:12.702Z,97.87
2023-02-15T05:32:40.381Z,97.27
2023-02-15T05:35:08.731Z,97.69
2023-02-15T05:37:36.073Z,96.82
2023-02-15T05:40:03.505Z,97.12
2023-02-15T05:42:31.854Z,97.26
2023-02-15T05:44:59.265Z,97.03
2023-02-15T05:47:26.605Z,95.91
2023-02-15T05:49:53.885Z,96.46
2023-02-15T05:52:24.156Z,95.67
2023-02-15T05:54:51.483Z,95.77
2023-02-15T05:57:18.784Z,95.63
2023-02-15T05:59:46.085Z,96.59
2023-02-15T06:02:14.089Z,97.30
2023-02-15T06:04:41.398Z,97.89
2023-02-15T06:07:08.825Z,98.33
2023-02-15T06:09:36.178Z,98.52
2023-02-15T06:12:03.814Z,98.84
2023-02-15T06:14:31.232Z,99.65
2023-02-15T06:16:58.779Z,98.90
2023-02-15T06:19:26.137Z,99.03
2023-02-15T06:21:53.489Z,99.08
2023-02-15T06:24:20.881Z,98.34
2023-02-15T06:26:48.246Z,97.52
2023-02-15T06:29:15.568Z,98.49
2023-02-15T06:31:43.153Z,98.90
2023-02-15T06:34:10.565Z,99.13
2023-02-15T06:36:37.983Z,99.83
2023-02-15T06:39:05.517Z,99.83
2023-02-15T06:41:33.048Z,98.78
2023-02-15T06:44:00.407Z,98.74
2023-02-15T06:46:28.044Z,97.58
2023-02-15T06:48:55.363Z,95.16
2023-02-15T06:51:22.715Z,90.57
2023-02-15T06:53:50.010Z,86.77
2023-02-15T06:56:17.490Z,82.90
2023-02-15T06:58:46.913Z,80.93
2023-02-15T07:01:14.404Z,79.40
2023-02-15T07:03:41.815Z,79.64
2023-02-15T07:06:10.481Z,79.52
2023-02-15T07:08:38.967Z,80.86
2023-02-15T07:11:26.695Z,79.90
2023-02-15T07:13:54.032Z,81.34
2023-02-15T07:16:21.859Z,79.69
2023-02-15T07:18:49.210Z,76.73
2023-02-15T07:21:16.591Z,77.77
2023-02-15T07:23:43.999Z,79.52
2023-02-15T07:26:13.730Z,78.50
2023-02-15T07:28:41.175Z,78.40
2023-02-15T07:31:08.694Z,77.49
2023-02-15T07:33:36.176Z,74.35
2023-02-15T07:36:05.209Z,69.82
2023-02-15T07:38:37.854Z,68.49
2023-02-15T07:41:12.080Z,66.60
2023-02-15T07:43:42.468Z,67.52
2023-02-15T07:46:16.148Z,63.96
2023-02-15T07:48:44.660Z,63.38
2023-02-15T07:51:13.108Z,59.78
2023-02-15T07:53:40.461Z,54.95
2023-02-15T07:56:12.782Z,52.40
2023-02-15T07:58:52.448Z,50.80
2023-02-15T08:01:28.234Z,49.90
2023-02-15T08:03:56.224Z,46.20
2023-02-15T08:06:27.960Z,43.54
2023-02-15T08:08:55.350Z,41.73
2023-02-15T08:11:38.601Z,40.83
2023-02-15T08:14:17.943Z,39.57
2023-02-15T08:16:49.617Z,40.67
2023-02-15T08:19:19.867Z,40.41
2023-02-15T08:21:57.824Z,41.65
2023-02-15T08:24:27.601Z,42.04
2023-02-15T08:26:55.225Z,40.53
2023-02-15T08:29:29.758Z,39.67
2023-02-15T08:32:03.895Z,40.01
2023-02-15T08:34:34.070Z,37.85
2023-02-15T08:37:01.956Z,37.17
2023-02-15T08:39:32.397Z,36.12
2023-02-15T08:41:59.720Z,35.46
2023-02-15T08:44:27.156Z,33.92
2023-02-15T08:46:55.678Z,34.48
2023-02-15T08:49:23.212Z,34.36
2023-02-15T08:51:53.538Z,33.63
2023-02-15T08:54:22.188Z,33.80
2023-02-15T08:56:49.686Z,33.84
2023-02-15T08:59:20.529Z,33.49
2023-02-15T09:01:50.016Z,33.67
2023-02-15T09:04:17.728Z,33.08
2023-02-15T09:06:48.601Z,32.87
2023-02-15T09:09:20.093Z,33.44
2023-02-15T09:11:52.098Z,33.32
2023-02-15T09:14:22.568Z,32.66
2023-02-15T09:16:51.974Z,31.49
2023-02-15T09:19:21.595Z,30.99
2023-02-15T09:21:49.449Z,30.24
2023-02-15T09:24:18.412Z,31.39
2023-02-15T09:26:48.084Z,32.13
2023-02-15T09:29:17.364Z,31.13
2023-02-15T09:31:47.232Z,30.06
2023-02-15T09:34:18.678Z,29.64
2023-02-15T09:36:47.544Z,30.58
2023-02-15T09:39:20.939Z,30.30
2023-02-15T09:42:23.045Z,30.91
2023-02-15T09:45:24.378Z,29.92
2023-02-15T09:48:30.596Z,29.29
2023-02-15T09:51:15.333Z,29.90
2023-02-15T09:54:01.923Z,29.87
2023-02-15T09:56:44.713Z,30.59
2023-02-15T09:59:21.521Z,30.05
2023-02-15T10:02:12.098Z,30.27
2023-02-15T10:04:57.928Z,30.67
2023-02-15T10:07:35.635Z,31.74
2023-02-15T10:10:26.329Z,31.80
2023-02-15T10:13:12.205Z,32.93
2023-02-15T10:16:32.379Z,32.26
2023-02-15T10:19:22.322Z,32.57
2023-02-15T10:22:15.507Z,34.08
2023-02-15T10:25:13.236Z,34.14
2023-02-15T10:27:47.630Z,35.45
2023-02-15T10:30:14.992Z,34.57
2023-02-15T10:33:02.470Z,34.00
2023-02-15T10:35:29.769Z,34.07
2023-02-15T10:38:20.106Z,33.92
2023-02-15T10:41:23.158Z,35.38
2023-02-15T10:44:07.378Z,36.24
2023-02-15T10:47:03.684Z,37.48
2023-02-15T10:49:47.052Z,36.66
2023-02-15T10:52:36.460Z,35.64
2023-02-15T10:55:15.795Z,37.97
2023-02-15T10:58:17.979Z,37.77
2023-02-15T11:01:14.056Z,38.91
2023-02-15T11:03:50.002Z,38.19
2023-02-15T11:06:20.979Z,38.15
2023-02-15T11:08:53.176Z,39.03
2023-02-15T11:11:25.480Z,38.12
2023-02-15T11:13:59.068Z,36.87
2023-02-15T11:16:35.098Z,35.03
2023-02-15T11:19:13.652Z,35.90
2023-02-15T11:21:46.665Z,36.84
2023-02-15T11:24:22.119Z,37.84
2023-02-15T11:27:17.795Z,37.87
2023-02-15T11:29:48.377Z,39.11
2023-02-15T11:32:26.040Z,38.57
2023-02-15T11:34:53.299Z,38.63
2023-02-15T11:37:29.596Z,37.60
2023-02-15T11:39:59.687Z,37.27
2023-02-15T11:42:31.094Z,37.63
2023-02-15T11:45:27.022Z,37.09
2023-02-15T11:47:55.609Z,37.37
2023-02-15T11:50:26.032Z,37.93
2023-02-15T11:52:59.254Z,38.74
2023-02-15T11:55:29.584Z,37.26
2023-02-15T11:58:36.708Z,37.87
2023-02-15T12:01:04.705Z,37.96
2023-02-15T12:03:58.727Z,36.61
2023-02-15T12:06:29.811Z,36.76
2023-02-15T12:09:06.498Z,36.27
2023-02-15T12:11:38.171Z,37.20
2023-02-15T12:14:16.820Z,36.22
2023-02-15T12:16:53.441Z,36.27
2023-02-15T12:19:33.864Z,36.29
2023-02-15T12:22:04.711Z,36.49
2023-02-15T12:24:37.884Z,35.94
2023-02-15T12:27:23.251Z,35.67
2023-02-15T12:29:54.669Z,34.91
2023-02-15T12:32:32.351Z,36.03
2023-02-15T12:35:13.752Z,35.54
2023-02-15T12:37:54.593Z,36.52
2023-02-15T12:40:26.878Z,35.64
2023-02-15T12:42:54.612Z,34.67
2023-02-15T12:45:33.620Z,35.75
2023-02-15T12:48:14.062Z,35.51
2023-02-15T12:50:43.257Z,36.36
2023-02-15T12:53:24.525Z,35.26
2023-02-15T12:56:00.855Z,36.32
2023-02-15T12:58:33.261Z,36.08
2023-02-15T13:01:09.660Z,36.15
2023-02-15T13:03:40.409Z,36.64
2023-02-15T13:06:09.006Z,36.66
2023-02-15T13:08:48.836Z,36.24
2023-02-15T13:11:23.809Z,36.96
2023-02-15T13:13:55.860Z,36.86
2023-02-15T13:16:32.198Z,36.99
2023-02-15T13:19:05.414Z,37.73
2023-02-15T13:21:40.655Z,37.01
2023-02-15T13:24:49.046Z,37.23
2023-02-15T13:27:20.654Z,36.62
2023-02-15T13:29:52.451Z,36.47
2023-02-15T13:32:29.816Z,37.09
2023-02-15T13:35:00.220Z,36.67
2023-02-15T13:37:48.790Z,36.90
2023-02-15T13:40:17.808Z,38.21
2023-02-15T13:42:52.535Z,38.35
2023-02-15T13:45:54.738Z,36.87
2023-02-15T13:48:51.260Z,37.07
2023-02-15T13:51:33.834Z,37.00
2023-02-15T13:54:17.947Z,35.55
2023-02-15T13:57:11.093Z,36.15
2023-02-15T13:59:54.577Z,36.70
2023-02-15T14:02:27.888Z,36.99
2023-02-15T14:05:45.171Z,37.31
2023-02-15T14:08:31.012Z,38.61
2023-02-15T14:11:18.471Z,39.56
2023-02-15T14:13:59.241Z,39.31
2023-02-15T14:17:06.342Z,38.78
2023-02-15T14:20:07.096Z,39.15
2023-02-15T14:22:44.043Z,39.07
2023-02-15T14:25:30.099Z,39.07
2023-02-15T14:28:12.015Z,39.09
2023-02-15T14:30:42.474Z,38.95
2023-02-15T14:33:21.358Z,39.83
2023-02-15T14:35:49.325Z,39.17
2023-02-15T14:38:24.652Z,39.38
2023-02-15T14:41:14.175Z,40.06
2023-02-15T14:44:13.160Z,40.03
2023-02-15T14:46:56.864Z,41.04
2023-02-15T14:49:26.185Z,40.20
2023-02-15T14:52:02.234Z,41.04
2023-02-15T14:54:31.317Z,42.14
2023-02-15T14:57:01.496Z,41.86
2023-02-15T14:59:44.078Z,41.92
2023-02-15T15:02:17.161Z,41.25
2023-02-15T15:04:57.486Z,42.25
2023-02-15T15:07:27.392Z,42.34
2023-02-15T15:10:26.919Z,42.70
2023-02-15T15:12:56.765Z,42.01
2023-02-15T15:15:32.890Z,41.81
2023-02-15T15:18:05.244Z,41.93
2023-02-15T15:20:43.781Z,43.08
2023-02-15T15:23:19.347Z,44.23
2023-02-15T15:25:57.320Z,43.70
2023-02-15T15:28:33.461Z,43.89
2023-02-15T15:31:18.205Z,44.19
2023-02-15T15:34:13.280Z,43.93
2023-02-15T15:36:59.264Z,43.50
2023-02-15T15:40:18.980Z,43.98
2023-02-15T15:43:09.143Z,45.58
2023-02-15T15:45:44.010Z,46.47
2023-02-15T15:48:31.568Z,47.01
2023-02-15T15:51:02.940Z,46.87
2023-02-15T15:53:38.517Z,45.58
2023-02-15T15:56:12.155Z,46.34
2023-02-15T15:58:45.293Z,46.75
2023-02-15T16:01:14.751Z,47.27
2023-02-15T16:03:53.223Z,48.21
2023-02-15T16:06:29.481Z,48.38
2023-02-15T16:08:57.093Z,48.69
2023-02-15T16:11:28.102Z,48.58
2023-02-15T16:13:56.127Z,48.84
2023-02-15T16:16:28.902Z,49.68
2023-02-15T16:19:00.412Z,49.53
2023-02-15T16:21:33.621Z,50.31
2023-02-15T16:24:28.466Z,50.60
2023-02-15T16:27:20.845Z,50.91
2023-02-15T16:29:48.512Z,51.14
2023-02-15T16:32:24.209Z,51.53
2023-02-15T16:34:53.808Z,51.96
2023-02-15T16:37:24.470Z,52.23
2023-02-15T16:39:51.846Z,53.23
2023-02-15T16:42:19.633Z,52.88
2023-02-15T16:45:02.616Z,53.48
2023-02-15T16:47:32.512Z,53.86
2023-02-15T16:50:03.526Z,54.15
2023-02-15T16:52:31.233Z,54.23
2023-02-15T16:55:00.862Z,54.82
2023-02-15T16:57:33.445Z,55.10
2023-02-15T17:00:17.936Z,55.88
2023-02-15T17:03:01.610Z,55.86
2023-02-15T17:05:33.307Z,55.93
2023-02-15T17:08:03.499Z,56.19
2023-02-15T17:10:37.145Z,56.56
2023-02-15T17:13:11.703Z,56.69
2023-02-15T17:16:06.079Z,56.84
2023-02-15T17:18:46.901Z,56.77
2023-02-15T17:21:25.593Z,57.08
2023-02-15T17:24:01.034Z,57.52
2023-02-15T17:26:34.070Z,57.55
2023-02-15T17:29:25.076Z,58.12
2023-02-15T17:31:55.171Z,58.35
2023-02-15T17:34:49.542Z,58.49
2023-02-15T17:37:30.173Z,58.88
2023-02-15T17:40:00.394Z,59.56
2023-02-15T17:42:28.210Z,60.47
2023-02-15T17:44:55.580Z,60.97
2023-02-15T17:47:27.650Z,61.70
2023-02-15T17:49:54.918Z,62.80
2023-02-15T17:52:22.301Z,63.62
2023-02-15T17:55:07.970Z,63.58
2023-02-15T17:57:35.356Z,64.17
2023-02-15T18:00:21.695Z,63.95
2023-02-15T18:03:07.462Z,64.20
2023-02-15T18:05:56.338Z,64.67
2023-02-15T18:08:46.270Z,64.44
2023-02-15T18:11:32.682Z,64.70
2023-02-15T18:14:03.371Z,65.20
2023-02-15T18:16:35.112Z,65.85
2023-02-15T18:19:04.871Z,65.72
2023-02-15T18:21:33.973Z,65.39
2023-02-15T18:24:01.478Z,65.55
2023-02-15T18:26:29.236Z,65.56
2023-02-15T18:28:56.651Z,66.61
2023-02-15T18:31:24.313Z,67.54
2023-02-15T18:33:58.093Z,67.96
2023-02-15T18:36:42.797Z,68.02
2023-02-15T18:39:37.004Z,68.17
2023-02-15T18:42:05.110Z,68.45
2023-02-15T18:44:32.612Z,68.58
2023-02-15T18:46:59.929Z,68.47
2023-02-15T18:49:27.404Z,68.78
2023-02-15T18:51:55.104Z,68.85
2023-02-15T18:54:24.713Z,69.09
2023-02-15T18:57:01.803Z,69.55
2023-02-15T18:59:31.214Z,69.92
2023-02-15T19:02:00.444Z,71.84
2023-02-15T19:04:27.891Z,72.57
2023-02-15T19:06:55.570Z,73.35
2023-02-15T19:09:24.650Z,73.16
2023-02-15T19:11:54.641Z,73.43
2023-02-15T19:14:30.836Z,72.95
2023-02-15T19:17:00.190Z,72.50
2023-02-15T19:19:27.886Z,73.59
2023-02-15T19:21:55.659Z,72.43
2023-02-15T19:24:32.009Z,72.36
2023-02-15T19:26:59.429Z,72.53
2023-02-15T19:29:30.480Z,72.01
2023-02-15T19:31:58.192Z,72.60
2023-02-15T19:34:25.677Z,72.49
2023-02-15T19:36:56.573Z,72.63
2023-02-15T19:39:37.024Z,72.43
2023-02-15T19:42:04.814Z,72.35
2023-02-15T19:44:32.334Z,72.22
2023-02-15T19:47:00.105Z,72.34
2023-02-15T19:49:27.512Z,72.51
2023-02-15T19:51:55.476Z,72.39
2023-02-15T19:54:35.219Z,72.60
2023-02-15T19:57:02.535Z,72.09
2023-02-15T19:59:33.030Z,72.21
2023-02-15T20:02:00.354Z,73.03
2023-02-15T20:04:27.805Z,72.75
2023-02-15T20:06:59.430Z,73.28
2023-02-15T20:09:31.863Z,72.42
2023-02-15T20:11:59.639Z,72.44
2023-02-15T20:14:27.769Z,72.52
2023-02-15T20:16:55.300Z,73.06
2023-02-15T20:19:25.302Z,73.62
2023-02-15T20:21:54.920Z,74.77
2023-02-15T20:24:26.119Z,74.05
2023-02-15T20:26:53.721Z,73.76
2023-02-15T20:29:22.590Z,73.73
2023-02-15T20:31:53.454Z,73.82
2023-02-15T20:34:22.808Z,74.80
2023-02-15T20:36:50.921Z,74.30
2023-02-15T20:39:20.564Z,74.29
2023-02-15T20:41:48.170Z,74.72
2023-02-15T20:44:27.675Z,75.32
2023-02-15T20:46:57.264Z,74.85
2023-02-15T20:49:26.388Z,74.98
2023-02-15T20:51:58.786Z,74.52
2023-02-15T20:54:29.883Z,74.51
2023-02-15T20:56:59.792Z,74.30
2023-02-15T20:59:32.497Z,74.89
2023-02-15T21:02:18.970Z,75.30
2023-02-15T21:04:46.802Z,75.58
2023-02-15T21:07:20.197Z,75.12
2023-02-15T21:09:48.115Z,75.65
2023-02-15T21:12:18.070Z,75.78
2023-02-15T21:14:46.045Z,75.52
2023-02-15T21:17:15.392Z,75.85
2023-02-15T21:19:43.462Z,76.49
2023-02-15T21:22:13.547Z,77.21
2023-02-15T21:24:47.835Z,76.46
2023-02-15T21:27:16.100Z,76.44
2023-02-15T21:29:43.449Z,76.70
2023-02-15T21:32:10.958Z,76.91
2023-02-15T21:34:39.921Z,77.19
2023-02-15T21:37:27.590Z,77.31
2023-02-15T21:39:55.149Z,77.22
2023-02-15T21:42:41.076Z,77.56
2023-02-15T21:45:36.803Z,76.95
2023-02-15T21:48:04.393Z,77.60
2023-02-15T21:50:50.794Z,77.99
2023-02-15T21:53:27.624Z,78.18
2023-02-15T21:55:57.006Z,78.88
2023-02-15T21:58:28.119Z,78.62
2023-02-15T22:00:57.898Z,79.15
2023-02-15T22:03:30.555Z,78.49
2023-02-15T22:05:57.990Z,78.33
2023-02-15T22:08:25.272Z,78.77
2023-02-15T22:10:55.114Z,78.77
2023-02-15T22:13:33.914Z,78.66
2023-02-15T22:16:03.244Z,78.56
2023-02-15T22:18:34.072Z,78.75
2023-02-15T22:21:04.396Z,79.13
2023-02-15T22:23:31.956Z,79.74
2023-02-15T22:26:04.812Z,80.62
2023-02-15T22:28:51.173Z,80.00
2023-02-15T22:31:21.420Z,79.81
2023-02-15T22:33:51.766Z,80.32
2023-02-15T22:36:28.241Z,80.28
2023-02-15T22:38:56.899Z,80.36
2023-02-15T22:41:30.443Z,80.62
2023-02-15T22:43:58.056Z,80.57
2023-02-15T22:46:26.275Z,80.34
2023-02-15T22:48:53.843Z,80.94
2023-02-15T22:51:23.949Z,80.73
2023-02-15T22:53:53.225Z,81.63
2023-02-15T22:56:27.492Z,81.35
2023-02-15T22:59:03.021Z,80.13
2023-02-15T23:01:32.363Z,79.90
2023-02-15T23:04:02.825Z,80.56
2023-02-15T23:06:31.924Z,81.57
2023-02-15T23:09:00.688Z,81.58
2023-02-15T23:11:28.872Z,80.85
2023-02-15T23:13:56.451Z,80.46
2023-02-15T23:16:23.873Z,79.61
2023-02-15T23:18:51.277Z,80.04
2023-02-15T23:21:33.497Z,80.83
2023-02-15T23:24:19.273Z,80.02
2023-02-15T23:26:47.513Z,79.23
2023-02-15T23:29:19.003Z,78.38
2023-02-15T23:31:49.494Z,78.13
2023-02-15T23:34:27.605Z,78.34
2023-02-15T23:36:55.904Z,79.04
2023-02-15T23:39:47.017Z,78.10
2023-02-15T23:42:17.131Z,76.24
2023-02-15T23:44:46.054Z,75.25
2023-02-15T23:47:43.170Z,75.92
2023-02-15T23:50:17.619Z,77.07
2023-02-15T23:52:44.989Z,78.15
2023-02-15T23:55:13.555Z,77.68
2023-02-15T23:57:42.473Z,77.23
